Time;durP1;ratioP1;P1;durP2;ratioP2;P2;SDS_P1;SDS_P2;PMS_P1;PMS_P2;Temp;Humidity;BMP_temperature;BMP_pressure;BME280_temperature;BME280_humidity;BME280_pressure;Samples;Min_cycle;Max_cycle;Signal;HPM_P1;HPM_P2
2021/03/05 00:02:06;;;;;;;;;;;;;;;5.07;88.70;101272.78;6186905;23;20321;-74
2021/03/05 00:04:32;;;;;;;;;;;;;;;5.08;88.86;101268.94;6189746;23;19915;-74
2021/03/05 00:06:57;;;;;;;;;;;;;;;5.10;88.66;101277.81;6139816;23;19987;-74
2021/03/05 00:09:23;;;;;;;;;;;;;;;5.12;88.82;101280.31;6114903;23;19987;-75
2021/03/05 00:11:48;;;;;;;;;;;;;;;5.14;88.75;101275.41;6139664;23;19908;-74
2021/03/05 00:14:13;;;;;;;;;;;;;;;5.16;88.80;101276.00;6190326;23;19908;-74
2021/03/05 00:16:39;;;;;;;;;;;;;;;5.11;89.68;101287.72;6163832;23;19908;-74
2021/03/05 00:19:04;;;;;;;;;;;;;;;5.12;89.78;101286.66;6190638;23;20237;-74
2021/03/05 00:21:29;;;;;;;;;;;;;;;5.13;89.84;101291.09;6163881;23;20253;-74
2021/03/05 00:23:55;;;;;;;;;;;;;;;5.09;91.45;101292.63;6190125;23;19948;-74
2021/03/05 00:26:20;;;;;;;;;;;;;;;5.09;91.79;101297.31;6189947;23;19915;-74
2021/03/05 00:28:45;;;;;;;;;;;;;;;5.05;92.04;101302.47;6139374;23;20257;-74
2021/03/05 00:31:11;;;;;;;;;;;;;;;5.09;91.70;101297.31;6162684;23;19908;-74
2021/03/05 00:33:36;;;;;;;;;;;;;;;5.14;91.72;101300.19;6163878;23;19979;-74
2021/03/05 00:36:01;;;;;;;;;;;;;;;5.22;90.92;101304.50;6190449;23;19994;-74
2021/03/05 00:38:27;;;;;;;;;;;;;;;5.22;90.76;101308.09;6114491;23;19931;-74
2021/03/05 00:40:52;;;;;;;;;;;;;;;5.21;91.27;101309.19;6190123;23;19919;-74
2021/03/05 00:43:18;;;;;;;;;;;;;;;5.21;92.10;101309.19;6163405;23;19908;-74
2021/03/05 00:45:43;;;;;;;;;;;;;;;5.25;92.06;101312.28;6139452;23;19950;-74
2021/03/05 00:48:09;;;;;;;;;;;;;;;5.30;92.18;101310.50;6139414;23;20285;-74
2021/03/05 00:50:34;;;;;;;;;;;;;;;5.30;91.94;101309.66;6138945;23;19909;-74
2021/03/05 00:53:00;;;;;;;;;;;;;;;5.31;92.56;101312.16;6189855;23;19908;-74
2021/03/05 00:55:25;;;;;;;;;;;;;;;5.33;92.79;101307.25;6163599;23;19908;-74
2021/03/05 00:57:50;;;;;;;;;;;;;;;5.34;92.60;101316.34;6138664;23;19915;-74
2021/03/05 01:00:16;;;;;;;;;;;;;;;5.32;92.70;101324.00;6163600;23;20329;-74
2021/03/05 01:02:42;;;;;;;;;;;;;;;5.34;92.37;101316.34;6139228;23;19908;-74
2021/03/05 01:05:07;;;;;;;;;;;;;;;5.38;92.70;101310.13;6189996;23;19913;-74
2021/03/05 01:07:33;;;;;;;;;;;;;;;5.38;92.56;101306.56;6163068;23;19912;-74
2021/03/05 01:09:58;;;;;;;;;;;;;;;5.38;92.62;101312.06;6189972;23;19908;-75
2021/03/05 01:12:23;;;;;;;;;;;;;;;5.44;92.39;101315.78;6138539;23;19908;-74
2021/03/05 01:14:49;;;;;;;;;;;;;;;5.43;92.51;101323.16;6138047;23;19912;-75
2021/03/05 01:17:14;;;;;;;;;;;;;;;5.42;92.22;101323.44;6163709;23;20326;-75
2021/03/05 01:19:40;;;;;;;;;;;;;;;5.39;92.03;101319.22;6189602;23;19919;-74
2021/03/05 01:22:05;;;;;;;;;;;;;;;5.38;91.89;101323.06;6163330;23;19912;-75
2021/03/05 01:24:30;;;;;;;;;;;;;;;5.40;91.68;101325.56;6189876;23;19943;-74
2021/03/05 01:26:56;;;;;;;;;;;;;;;5.42;91.20;101321.50;6163098;23;19944;-74
2021/03/05 01:29:21;;;;;;;;;;;;;;;5.39;90.95;101324.75;6189440;23;20331;-74
2021/03/05 01:31:46;;;;;;;;;;;;;;;5.35;90.63;101318.06;6162707;23;19912;-74
2021/03/05 01:34:12;;;;;;;;;;;;;;;5.37;89.94;101321.38;6189273;23;19924;-74
2021/03/05 01:36:37;;;;;;;;;;;;;;;5.33;90.60;101333.97;6163020;23;19920;-74
2021/03/05 01:39:03;;;;;;;;;;;;;;;5.31;89.82;101333.38;6163507;23;19912;-74
2021/03/05 01:41:28;;;;;;;;;;;;;;;5.29;89.78;101332.75;6138278;23;19951;-75
2021/03/05 01:43:53;;;;;;;;;;;;;;;5.26;89.50;101336.81;6162977;23;19908;-74
2021/03/05 01:46:19;;;;;;;;;;;;;;;5.25;89.30;101348.09;6189018;23;19908;-74
2021/03/05 01:48:44;;;;;;;;;;;;;;;5.20;88.25;101342.47;6138775;23;19908;-74
2021/03/05 01:51:11;;;;;;;;;;;;;;;5.22;88.25;101334.81;6189308;23;19931;-74
2021/03/05 01:53:36;;;;;;;;;;;;;;;5.15;88.17;101333.00;6163305;23;19991;-74
2021/03/05 01:56:02;;;;;;;;;;;;;;;5.07;87.74;101338.88;6162497;23;19916;-74
2021/03/05 01:58:27;;;;;;;;;;;;;;;5.06;87.99;101339.91;6138435;23;19919;-74
2021/03/05 02:00:53;;;;;;;;;;;;;;;5.09;88.32;101346.88;6189374;23;19940;-74
2021/03/05 02:03:19;;;;;;;;;;;;;;;5.05;87.70;101341.00;6138265;23;20405;-74
2021/03/05 02:05:44;;;;;;;;;;;;;;;5.01;87.03;101337.03;6189159;23;19908;-74
2021/03/05 02:08:10;;;;;;;;;;;;;;;4.97;86.31;101343.28;6163392;23;19912;-74
2021/03/05 02:10:35;;;;;;;;;;;;;;;4.97;86.06;101335.00;6189051;23;19912;-74
2021/03/05 02:13:01;;;;;;;;;;;;;;;4.93;85.57;101331.88;6162702;23;19915;-74
2021/03/05 02:15:26;;;;;;;;;;;;;;;4.93;85.75;101332.75;6163099;23;19916;-74
2021/03/05 02:18:04;;;;;;;;;;;;;;;4.94;85.08;101330.81;6138383;23;19908;-74
2021/03/05 02:20:30;;;;;;;;;;;;;;;4.89;85.29;101328.75;6188683;23;19939;-74
2021/03/05 02:23:14;;;;;;;;;;;;;;;4.86;85.04;101328.41;6163051;23;19919;-74
2021/03/05 02:25:59;;;;;;;;;;;;;;;4.87;85.30;101330.06;6163305;23;19936;-74
2021/03/05 02:28:31;;;;;;;;;;;;;;;4.87;85.56;101333.66;6162262;23;20337;-74
2021/03/05 02:31:18;;;;;;;;;;;;;;;4.88;85.65;101329.03;6161650;23;20322;-74
2021/03/05 02:33:49;;;;;;;;;;;;;;;4.91;86.04;101320.28;6162814;23;19979;-74
2021/03/05 02:36:17;;;;;;;;;;;;;;;4.90;85.40;101321.34;6163039;23;19948;-74
2021/03/05 02:38:44;;;;;;;;;;;;;;;4.89;85.53;101326.00;6137776;23;19931;-74
2021/03/05 02:41:10;;;;;;;;;;;;;;;4.91;84.77;101323.03;6162352;23;19947;-74
2021/03/05 02:43:35;;;;;;;;;;;;;;;4.87;85.11;101332.81;6189121;23;19924;-75
2021/03/05 02:46:05;;;;;;;;;;;;;;;4.87;84.80;101330.06;6162398;23;19915;-74
2021/03/05 02:48:31;;;;;;;;;;;;;;;4.92;84.47;101327.44;6189383;23;20301;-74
2021/03/05 02:50:58;;;;;;;;;;;;;;;4.91;85.00;101325.78;6162743;23;19908;-74
2021/03/05 02:53:24;;;;;;;;;;;;;;;4.87;84.40;101321.81;6162220;23;19908;-74
2021/03/05 02:55:51;;;;;;;;;;;;;;;4.80;84.40;101327.44;6137488;23;19908;-74
2021/03/05 02:58:16;;;;;;;;;;;;;;;4.80;84.08;101324.69;6113730;23;19928;-74
2021/03/05 03:00:41;;;;;;;;;;;;;;;4.80;84.49;101327.44;6113139;23;19913;-74
2021/03/05 03:03:07;;;;;;;;;;;;;;;4.81;84.09;101322.75;6138198;23;19912;-74
2021/03/05 03:05:32;;;;;;;;;;;;;;;4.74;83.18;101324.81;6113773;23;19908;-74
2021/03/05 03:07:58;;;;;;;;;;;;;;;4.76;82.00;101326.22;6113169;23;19908;-74
2021/03/05 03:10:24;;;;;;;;;;;;;;;4.70;82.27;101322.50;6162268;23;19908;-74
2021/03/05 03:12:57;;;;;;;;;;;;;;;4.74;82.21;101316.53;6162539;23;20611;-74
2021/03/05 03:15:22;;;;;;;;;;;;;;;4.68;82.28;101312.78;6137568;23;19919;-74
2021/03/05 03:17:48;;;;;;;;;;;;;;;4.66;81.98;101315.78;6162567;23;19912;-74
2021/03/05 03:20:14;;;;;;;;;;;;;;;4.65;82.55;101318.75;6162790;23;20043;-74
2021/03/05 03:22:39;;;;;;;;;;;;;;;4.65;82.02;101314.13;6188306;23;19908;-74
2021/03/05 03:25:05;;;;;;;;;;;;;;;4.61;82.30;101317.56;6137586;23;20254;-74
2021/03/05 03:27:31;;;;;;;;;;;;;;;4.62;82.13;101317.31;6162300;23;19995;-74
2021/03/05 03:29:56;;;;;;;;;;;;;;;4.63;82.26;101315.44;6187416;23;19912;-74
2021/03/05 03:32:21;;;;;;;;;;;;;;;4.66;82.42;101315.78;6137502;23;19913;-75
2021/03/05 03:34:47;;;;;;;;;;;;;;;4.64;82.40;101312.44;6162492;23;19924;-74
2021/03/05 03:37:12;;;;;;;;;;;;;;;4.63;82.34;101316.25;6161911;23;19909;-74
2021/03/05 03:39:38;;;;;;;;;;;;;;;4.64;82.42;101317.09;6163134;23;19920;-75
2021/03/05 03:42:03;;;;;;;;;;;;;;;4.61;82.50;101317.56;6140160;23;19909;-74
2021/03/05 03:44:29;;;;;;;;;;;;;;;4.62;82.74;101314.56;6164452;23;19908;-74
2021/03/05 03:46:54;;;;;;;;;;;;;;;4.67;83.00;101322.13;6164230;23;20322;-74
2021/03/05 03:49:22;;;;;;;;;;;;;;;4.68;82.27;101329.31;6164662;23;19955;-74
2021/03/05 03:51:52;;;;;;;;;;;;;;;4.65;81.79;101318.75;6190296;23;20140;-74
2021/03/05 03:54:18;;;;;;;;;;;;;;;4.66;82.00;101318.53;6190522;23;19916;-75
2021/03/05 03:56:43;;;;;;;;;;;;;;;4.62;82.08;101328.31;6164156;23;19919;-74
2021/03/05 03:59:10;;;;;;;;;;;;;;;4.63;82.15;101323.69;6139469;23;19909;-74
2021/03/05 04:01:36;;;;;;;;;;;;;;;4.64;82.88;101328.94;6164132;23;19967;-74
2021/03/05 04:04:01;;;;;;;;;;;;;;;4.69;82.53;101323.56;6191292;23;19912;-74
2021/03/05 04:06:27;;;;;;;;;;;;;;;4.68;82.40;101326.53;6139063;23;19947;-74
2021/03/05 04:08:52;;;;;;;;;;;;;;;4.66;82.70;101326.81;6164065;23;19982;-74
2021/03/05 04:11:18;;;;;;;;;;;;;;;4.63;82.62;101335.53;6140116;23;19912;-74
2021/03/05 04:13:43;;;;;;;;;;;;;;;4.65;82.11;101341.66;6190045;23;19909;-74
2021/03/05 04:16:09;;;;;;;;;;;;;;;4.66;81.97;101336.97;6139478;23;19908;-74
2021/03/05 04:18:35;;;;;;;;;;;;;;;4.64;81.71;101345.44;6164371;23;19915;-74
2021/03/05 04:21:01;;;;;;;;;;;;;;;4.64;81.98;101342.69;6138920;23;20281;-74
2021/03/05 04:23:26;;;;;;;;;;;;;;;4.67;81.93;101344.97;6163632;23;19908;-74
2021/03/05 04:25:52;;;;;;;;;;;;;;;4.68;82.14;101343.91;6163866;23;19908;-74
2021/03/05 04:28:17;;;;;;;;;;;;;;;4.68;82.67;101340.31;6189839;23;20249;-74
2021/03/05 04:30:42;;;;;;;;;;;;;;;4.73;82.54;101347.88;6162770;23;20319;-74
2021/03/05 04:33:08;;;;;;;;;;;;;;;4.70;82.13;101349.19;6139273;23;19919;-74
2021/03/05 04:35:33;;;;;;;;;;;;;;;4.70;82.15;101352.75;6188117;23;19912;-74
2021/03/05 04:37:58;;;;;;;;;;;;;;;4.67;82.68;101353.22;6137235;23;20314;-75
2021/03/05 04:40:24;;;;;;;;;;;;;;;4.63;82.69;101354.78;6162468;23;19912;-75
2021/03/05 04:42:49;;;;;;;;;;;;;;;4.65;82.95;101360.91;6137373;23;19909;-75
2021/03/05 04:45:14;;;;;;;;;;;;;;;4.69;82.80;101351.09;6161918;23;19908;-75
2021/03/05 04:47:40;;;;;;;;;;;;;;;4.59;83.11;101356.31;6188513;23;19990;-75
2021/03/05 04:50:06;;;;;;;;;;;;;;;4.64;83.45;101358.38;6136929;23;19979;-75
2021/03/05 04:52:31;;;;;;;;;;;;;;;4.66;83.60;101362.56;6137666;23;20237;-74
2021/03/05 04:54:56;;;;;;;;;;;;;;;4.62;83.70;101361.34;6188780;23;19943;-74
2021/03/05 04:57:22;;;;;;;;;;;;;;;4.67;83.86;101363.41;6136602;23;19908;-74
2021/03/05 04:59:47;;;;;;;;;;;;;;;4.67;83.87;101363.41;6161533;23;20330;-74
2021/03/05 05:02:12;;;;;;;;;;;;;;;4.67;83.54;101366.16;6137825;23;19912;-75
2021/03/05 05:04:38;;;;;;;;;;;;;;;4.69;83.91;101369.53;6136997;23;19912;-74
2021/03/05 05:07:03;;;;;;;;;;;;;;;4.60;83.76;101371.78;6161941;23;20526;-74
2021/03/05 05:09:28;;;;;;;;;;;;;;;4.67;83.94;101367.00;6161947;23;20337;-74
2021/03/05 05:11:54;;;;;;;;;;;;;;;4.67;83.72;101372.50;6187805;23;20397;-74
2021/03/05 05:14:19;;;;;;;;;;;;;;;4.63;83.82;101365.78;6161337;23;19915;-74
2021/03/05 05:16:44;;;;;;;;;;;;;;;4.68;83.96;101370.56;6188690;23;19908;-74
2021/03/05 05:19:10;;;;;;;;;;;;;;;4.64;84.12;101372.13;6187930;23;19917;-74
2021/03/05 05:21:36;;;;;;;;;;;;;;;4.63;84.25;101371.28;6187829;23;19919;-74
2021/03/05 05:24:02;;;;;;;;;;;;;;;4.68;84.26;101368.69;6162617;23;19952;-74
2021/03/05 05:26:27;;;;;;;;;;;;;;;4.68;84.24;101368.69;6161011;23;20296;-74
2021/03/05 05:28:52;;;;;;;;;;;;;;;4.67;84.41;101371.66;6188010;23;19909;-74
2021/03/05 05:31:18;;;;;;;;;;;;;;;4.69;84.36;101373.09;6136876;23;19908;-74
2021/03/05 05:33:43;;;;;;;;;;;;;;;4.69;84.66;101381.38;6122524;23;1493939;-74
2021/03/05 05:36:09;;;;;;;;;;;;;;;4.76;84.57;101377.66;6163689;23;19918;-74
2021/03/05 05:38:34;;;;;;;;;;;;;;;4.69;84.74;101389.63;6188486;23;20349;-74
2021/03/05 05:41:00;;;;;;;;;;;;;;;4.77;84.87;101387.63;6137186;23;20249;-74
2021/03/05 05:43:30;;;;;;;;;;;;;;;4.76;84.93;101391.44;6187231;23;19915;-74
2021/03/05 05:45:56;;;;;;;;;;;;;;;4.68;85.39;101389.84;6161720;23;19908;-74
2021/03/05 05:48:21;;;;;;;;;;;;;;;4.66;85.44;101392.84;6136330;23;19947;-74
2021/03/05 05:50:47;;;;;;;;;;;;;;;4.65;85.37;101388.41;6187208;23;19927;-74
2021/03/05 05:53:12;;;;;;;;;;;;;;;4.61;85.56;101383.59;6137849;23;20222;-74
2021/03/05 05:55:37;;;;;;;;;;;;;;;4.61;85.60;101384.44;6113401;23;20338;-74
2021/03/05 05:58:03;;;;;;;;;;;;;;;4.63;85.74;101387.81;6162380;23;19908;-74
2021/03/05 06:00:28;;;;;;;;;;;;;;;4.59;85.92;101389.31;6138056;23;19931;-74
2021/03/05 06:02:54;;;;;;;;;;;;;;;4.63;85.95;101393.31;6188668;23;19908;-74
2021/03/05 06:05:19;;;;;;;;;;;;;;;4.57;86.06;101396.13;6138054;23;19931;-74
2021/03/05 06:07:45;;;;;;;;;;;;;;;4.62;85.99;101396.28;6162772;23;19909;-74
2021/03/05 06:10:11;;;;;;;;;;;;;;;4.57;86.22;101397.00;6137960;23;19952;-75
2021/03/05 06:12:36;;;;;;;;;;;;;;;4.57;86.24;101397.00;6162531;23;20404;-74
2021/03/05 06:15:02;;;;;;;;;;;;;;;4.54;86.30;101402.97;6188822;23;19908;-74
2021/03/05 06:17:40;;;;;;;;;;;;;;;4.57;86.34;101405.25;6189225;23;19943;-74
2021/03/05 06:20:06;;;;;;;;;;;;;;;4.51;86.60;101402.56;6162302;23;20360;-75
2021/03/05 06:22:31;;;;;;;;;;;;;;;4.52;86.58;101404.28;6138057;23;19908;-74
2021/03/05 06:24:57;;;;;;;;;;;;;;;4.52;86.60;101402.34;6137790;23;19909;-74
2021/03/05 06:27:26;;;;;;;;;;;;;;;4.55;86.43;101399.13;6188380;23;19908;-74
2021/03/05 06:29:52;;;;;;;;;;;;;;;4.48;86.81;101398.38;6113460;23;19908;-74
2021/03/05 06:32:17;;;;;;;;;;;;;;;4.44;86.81;101397.16;6113460;23;20020;-74
2021/03/05 06:34:46;;;;;;;;;;;;;;;4.48;86.85;101401.13;6161620;23;19922;-74
2021/03/05 06:37:11;;;;;;;;;;;;;;;4.53;86.83;101403.19;6162154;23;19919;-74
2021/03/05 06:39:36;;;;;;;;;;;;;;;4.50;86.93;101406.41;6113247;23;19912;-74
2021/03/05 06:42:08;;;;;;;;;;;;;;;4.48;86.95;101403.88;6137336;23;19908;-74
2021/03/05 06:44:34;;;;;;;;;;;;;;;4.49;87.05;101408.31;6188627;23;19908;-74
2021/03/05 06:47:09;;;;;;;;;;;;;;;4.47;87.17;101421.47;6162384;23;19915;-74
2021/03/05 06:49:35;;;;;;;;;;;;;;;4.50;87.17;101410.00;6187178;23;19908;-74
2021/03/05 06:52:00;;;;;;;;;;;;;;;4.47;87.14;101411.28;6188494;23;19908;-74
2021/03/05 06:54:29;;;;;;;;;;;;;;;4.51;87.09;101435.56;6162220;23;19909;-74
2021/03/05 06:56:55;;;;;;;;;;;;;;;4.51;87.18;101433.66;6137362;23;20376;-74
2021/03/05 06:59:21;;;;;;;;;;;;;;;4.50;87.13;101436.66;6188215;23;19908;-74
2021/03/05 07:01:56;;;;;;;;;;;;;;;4.51;87.02;101441.91;6138054;23;19912;-74
2021/03/05 07:04:27;;;;;;;;;;;;;;;4.56;86.94;101433.81;6162961;23;19908;-75
2021/03/05 07:06:56;;;;;;;;;;;;;;;4.57;87.15;101437.41;6137535;23;19909;-74
2021/03/05 07:09:22;;;;;;;;;;;;;;;4.59;87.15;101438.84;6188196;23;19909;-74
2021/03/05 07:11:48;;;;;;;;;;;;;;;4.56;87.31;101450.31;6162004;23;19913;-74
2021/03/05 07:14:14;;;;;;;;;;;;;;;4.51;87.53;101455.66;6161964;23;19908;-74
2021/03/05 07:16:40;;;;;;;;;;;;;;;4.50;87.51;101459.50;6188149;23;19908;-74
2021/03/05 07:19:05;;;;;;;;;;;;;;;4.50;87.74;101451.25;6161984;23;19931;-74
2021/03/05 07:21:31;;;;;;;;;;;;;;;4.45;87.99;101464.84;6137320;23;20312;-74
2021/03/05 07:23:56;;;;;;;;;;;;;;;4.46;87.75;101464.63;6162506;23;20355;-79
2021/03/05 07:26:22;;;;;;;;;;;;;;;4.50;87.58;101459.50;6113014;23;19908;-74
2021/03/05 07:28:47;;;;;;;;;;;;;;;4.48;87.73;101465.25;6162047;23;19916;-74
2021/03/05 07:31:16;;;;;;;;;;;;;;;4.49;87.93;101468.84;6137332;23;19915;-73
2021/03/05 07:33:41;;;;;;;;;;;;;;;4.51;87.71;101466.69;6187903;23;19960;-73
2021/03/05 07:36:08;;;;;;;;;;;;;;;4.52;87.38;101468.38;6137330;23;20350;-74
2021/03/05 07:38:33;;;;;;;;;;;;;;;4.53;87.45;101475.53;6161873;23;19931;-74
2021/03/05 07:41:02;;;;;;;;;;;;;;;4.51;87.48;101474.94;6161318;23;19938;-73
2021/03/05 07:43:27;;;;;;;;;;;;;;;4.54;87.64;101473.63;6162554;23;19915;-73
2021/03/05 07:45:53;;;;;;;;;;;;;;;4.57;87.58;101482.28;6188043;23;19908;-74
2021/03/05 07:48:18;;;;;;;;;;;;;;;4.59;87.45;101485.63;6161800;23;19987;-73
2021/03/05 07:50:43;;;;;;;;;;;;;;;4.58;87.28;101483.13;6137198;23;19940;-73
2021/03/05 07:53:16;;;;;;;;;;;;;;;4.62;87.36;101487.06;6188325;23;20348;-75
2021/03/05 07:55:42;;;;;;;;;;;;;;;4.62;87.34;101485.16;6161359;23;19912;-73
2021/03/05 07:58:07;;;;;;;;;;;;;;;4.64;87.17;101493.19;6187951;23;19938;-73
2021/03/05 08:00:48;;;;;;;;;;;;;;;4.63;87.12;101486.84;6161692;23;19919;-73
2021/03/05 08:03:14;;;;;;;;;;;;;;;4.66;86.88;101494.66;6161654;23;19960;-73
2021/03/05 08:05:43;;;;;;;;;;;;;;;4.69;86.88;101499.69;6161747;23;20246;-73
2021/03/05 08:08:11;;;;;;;;;;;;;;;4.68;86.87;101498.03;6188107;23;20029;-73
2021/03/05 08:10:37;;;;;;;;;;;;;;;4.72;86.61;101506.66;6187689;23;19908;-74
2021/03/05 08:13:02;;;;;;;;;;;;;;;4.73;86.71;101512.97;6161873;23;19923;-74
2021/03/05 08:15:27;;;;;;;;;;;;;;;4.77;86.54;101517.81;6161770;23;20544;-73
2021/03/05 08:17:53;;;;;;;;;;;;;;;4.74;86.27;101522.94;6161862;23;19908;-73
2021/03/05 08:20:19;;;;;;;;;;;;;;;4.82;86.05;101523.47;6161705;23;19912;-73
2021/03/05 08:22:56;;;;;;;;;;;;;;;4.79;86.20;101523.06;6161758;23;19987;-73
2021/03/05 08:25:25;;;;;;;;;;;;;;;4.81;85.62;101515.41;6188835;23;20330;-73
2021/03/05 08:27:50;;;;;;;;;;;;;;;4.81;85.15;101520.94;6163169;23;19908;-73
2021/03/05 08:30:17;;;;;;;;;;;;;;;4.85;85.37;101524.91;6163512;23;19908;-73
2021/03/05 08:32:51;;;;;;;;;;;;;;;4.83;85.13;101524.28;6163711;23;19931;-73
2021/03/05 08:35:29;;;;;;;;;;;;;;;4.89;85.11;101520.63;6163147;23;19928;-73
2021/03/05 08:38:04;;;;;;;;;;;;;;;4.95;84.88;101522.44;6163579;23;19935;-73
2021/03/05 08:40:30;;;;;;;;;;;;;;;4.95;84.52;101516.94;6163253;23;19916;-74
2021/03/05 08:42:57;;;;;;;;;;;;;;;4.95;84.45;101519.69;6163618;23;20333;-74
2021/03/05 08:45:22;;;;;;;;;;;;;;;5.01;84.21;101527.00;6114718;23;19908;-74
2021/03/05 08:47:51;;;;;;;;;;;;;;;5.03;83.30;101524.03;6189747;23;20333;-74
2021/03/05 08:50:17;;;;;;;;;;;;;;;5.01;81.96;101532.50;6138707;23;19912;-74
2021/03/05 08:52:44;;;;;;;;;;;;;;;5.04;81.60;101529.31;6162422;23;19916;-74
2021/03/05 08:55:09;;;;;;;;;;;;;;;5.02;81.75;101525.94;6163438;23;20491;-74
2021/03/05 08:57:49;;;;;;;;;;;;;;;5.02;80.77;101534.22;6162838;23;19908;-73
2021/03/05 09:00:18;;;;;;;;;;;;;;;4.95;80.34;101536.19;6162906;23;20345;-73
2021/03/05 09:02:43;;;;;;;;;;;;;;;4.91;79.30;101532.25;6162983;23;20002;-73
2021/03/05 09:05:09;;;;;;;;;;;;;;;4.93;78.08;101543.84;6138503;23;19908;-73
2021/03/05 09:07:45;;;;;;;;;;;;;;;4.89;78.14;101546.22;6189456;23;20230;-73
2021/03/05 09:10:11;;;;;;;;;;;;;;;4.96;78.18;101539.78;6163010;23;19962;-74
2021/03/05 09:12:38;;;;;;;;;;;;;;;4.92;77.42;101547.69;6189021;23;19909;-73
2021/03/05 09:15:04;;;;;;;;;;;;;;;4.89;77.49;101545.38;6163627;23;19986;-74
2021/03/05 09:17:30;;;;;;;;;;;;;;;4.90;77.78;101549.81;6189647;23;19915;-74
2021/03/05 09:19:55;;;;;;;;;;;;;;;4.86;77.61;101549.44;6189205;23;19926;-73
2021/03/05 09:22:24;;;;;;;;;;;;;;;4.91;77.68;101548.75;6138029;23;19915;-74
2021/03/05 09:25:10;;;;;;;;;;;;;;;4.90;77.45;101547.91;6162970;23;19912;-75
2021/03/05 09:27:35;;;;;;;;;;;;;;;4.92;77.31;101544.91;6188867;23;19908;-74
2021/03/05 09:30:19;;;;;;;;;;;;;;;4.88;75.76;101543.72;6162890;23;19915;-74
2021/03/05 09:32:46;;;;;;;;;;;;;;;4.86;76.67;101545.84;6162926;23;20002;-73
2021/03/05 09:35:11;;;;;;;;;;;;;;;4.88;76.96;101546.47;6162496;23;19987;-74
2021/03/05 09:37:36;;;;;;;;;;;;;;;4.93;75.05;101546.59;6113298;23;19963;-74
2021/03/05 09:40:02;;;;;;;;;;;;;;;4.92;74.60;101547.69;6113696;23;19920;-74
2021/03/05 09:42:43;;;;;;;;;;;;;;;4.95;74.99;101552.72;6113647;23;19912;-74
2021/03/05 09:45:08;;;;;;;;;;;;;;;4.95;75.01;101552.72;6138361;23;19913;-73
2021/03/05 09:47:47;;;;;;;;;;;;;;;4.96;74.96;101556.31;6162907;23;19930;-74
2021/03/05 09:50:19;;;;;;;;;;;;;;;4.96;75.06;101551.66;6188936;23;19909;-75
2021/03/05 09:52:44;;;;;;;;;;;;;;;5.00;74.63;101552.88;6137942;23;20479;-74
2021/03/05 09:55:12;;;;;;;;;;;;;;;5.02;74.79;101560.91;6188013;23;20003;-74
2021/03/05 09:57:40;;;;;;;;;;;;;;;5.02;74.97;101556.25;6162130;23;19959;-74
2021/03/05 10:00:06;;;;;;;;;;;;;;;5.01;75.58;101551.78;6162286;23;20345;-74
2021/03/05 10:02:35;;;;;;;;;;;;;;;5.06;75.13;101551.09;6162641;23;19908;-74
2021/03/05 10:05:00;;;;;;;;;;;;;;;5.09;75.80;101550.63;6189315;23;19908;-73
2021/03/05 10:07:26;;;;;;;;;;;;;;;5.09;76.29;101559.72;6162551;23;19915;-74
2021/03/05 10:09:51;;;;;;;;;;;;;;;5.14;74.95;101556.28;6162450;23;19959;-74
2021/03/05 10:12:25;;;;;;;;;;;;;;;5.10;75.17;101558.66;6112852;23;20362;-75
2021/03/05 10:15:02;;;;;;;;;;;;;;;5.12;74.35;101552.91;6162614;23;19974;-70
2021/03/05 10:17:27;;;;;;;;;;;;;;;5.18;74.72;101562.16;6137999;23;19912;-72
2021/03/05 10:19:52;;;;;;;;;;;;;;;5.20;75.36;101555.34;6137651;23;19919;-72
2021/03/05 10:22:18;;;;;;;;;;;;;;;5.26;75.34;101556.34;6188665;23;19962;-73
2021/03/05 10:24:44;;;;;;;;;;;;;;;5.26;73.87;101561.84;6162298;23;19908;-74
2021/03/05 10:27:19;;;;;;;;;;;;;;;5.27;74.11;101552.53;6188340;23;19908;-73
2021/03/05 10:29:50;;;;;;;;;;;;;;;5.31;73.58;101567.50;6188900;23;19909;-73
2021/03/05 10:32:15;;;;;;;;;;;;;;;5.28;72.46;101565.22;6162309;23;19912;-73
2021/03/05 10:34:41;;;;;;;;;;;;;;;5.31;71.37;101559.22;6188287;23;19923;-74
2021/03/05 10:37:06;;;;;;;;;;;;;;;5.28;71.08;101565.22;6137725;23;19991;-73
2021/03/05 10:39:32;;;;;;;;;;;;;;;5.35;70.02;101560.47;6137644;23;19908;-74
2021/03/05 10:42:01;;;;;;;;;;;;;;;5.36;69.79;101573.16;6162024;23;19915;-73
2021/03/05 10:44:27;;;;;;;;;;;;;;;5.42;69.52;101568.63;6162429;23;19940;-73
2021/03/05 10:46:55;;;;;;;;;;;;;;;5.41;69.65;101565.03;6137712;23;19908;-74
2021/03/05 10:49:20;;;;;;;;;;;;;;;5.44;69.44;101572.00;6161902;23;19909;-73
2021/03/05 10:51:45;;;;;;;;;;;;;;;5.45;69.55;101559.88;6188676;23;20540;-73
2021/03/05 10:54:11;;;;;;;;;;;;;;;5.52;70.47;101572.50;6137750;23;19909;-74
2021/03/05 10:56:36;;;;;;;;;;;;;;;5.57;70.00;101563.50;6162175;23;19912;-73
2021/03/05 10:59:02;;;;;;;;;;;;;;;5.63;70.57;101568.09;6162193;23;20000;-73
2021/03/05 11:01:27;;;;;;;;;;;;;;;5.70;69.82;101562.47;6188169;23;19916;-73
2021/03/05 11:03:52;;;;;;;;;;;;;;;5.76;69.34;101565.09;6162092;23;19946;-74
2021/03/05 11:06:18;;;;;;;;;;;;;;;5.83;69.26;101562.28;6162227;23;19912;-74
2021/03/05 11:08:44;;;;;;;;;;;;;;;5.92;67.56;101566.34;6136959;23;19927;-73
2021/03/05 11:11:09;;;;;;;;;;;;;;;5.92;68.77;101574.63;6161616;23;19915;-73
2021/03/05 11:13:34;;;;;;;;;;;;;;;5.99;67.01;101563.50;6161823;23;19908;-73
2021/03/05 11:16:00;;;;;;;;;;;;;;;6.00;67.46;101566.03;6188312;23;19943;-73
2021/03/05 11:18:25;;;;;;;;;;;;;;;6.06;67.33;101560.66;6188264;23;19914;-74
2021/03/05 11:20:50;;;;;;;;;;;;;;;6.08;67.77;101569.53;6188144;23;20293;-74
2021/03/05 11:23:16;;;;;;;;;;;;;;;6.15;67.23;101568.31;6136986;23;19983;-73
2021/03/05 11:25:41;;;;;;;;;;;;;;;6.19;67.14;101572.28;6161724;23;19940;-73
2021/03/05 11:28:06;;;;;;;;;;;;;;;6.18;66.74;101575.28;6161820;23;19912;-73
2021/03/05 11:30:32;;;;;;;;;;;;;;;6.21;67.17;101574.81;6137166;23;19966;-73
2021/03/05 11:32:57;;;;;;;;;;;;;;;6.25;67.42;101576.00;6161984;23;19982;-73
2021/03/05 11:35:22;;;;;;;;;;;;;;;6.27;68.14;101579.38;6187444;23;19983;-73
2021/03/05 11:37:48;;;;;;;;;;;;;;;6.33;68.08;101572.91;6188137;23;19912;-73
2021/03/05 11:40:13;;;;;;;;;;;;;;;6.42;67.41;101576.97;6161304;23;19916;-73
2021/03/05 11:42:39;;;;;;;;;;;;;;;6.42;66.57;101565.94;6161585;23;19983;-73
2021/03/05 11:45:05;;;;;;;;;;;;;;;6.52;66.89;101572.75;6160705;23;19915;-73
2021/03/05 11:47:32;;;;;;;;;;;;;;;6.59;66.53;101576.25;6161757;23;20491;-73
2021/03/05 11:49:57;;;;;;;;;;;;;;;6.58;67.19;101569.06;6188209;23;19966;-74
2021/03/05 11:52:22;;;;;;;;;;;;;;;6.60;67.69;101566.88;6188181;23;19932;-73
2021/03/05 11:54:48;;;;;;;;;;;;;;;6.65;68.04;101575.28;6187944;23;19912;-73
2021/03/05 11:57:13;;;;;;;;;;;;;;;6.71;68.04;101579.81;6136845;23;20242;-73
2021/03/05 11:59:41;;;;;;;;;;;;;;;6.65;66.51;101578.03;6188245;23;19908;-75
2021/03/05 12:02:10;;;;;;;;;;;;;;;6.64;67.13;101574.44;6115303;23;19908;-75
2021/03/05 12:04:35;;;;;;;;;;;;;;;6.65;66.32;101578.03;6114348;23;20330;-75
2021/03/05 12:07:00;;;;;;;;;;;;;;;6.63;67.57;101572.78;6139115;23;19973;-75
2021/03/05 12:09:26;;;;;;;;;;;;;;;6.62;66.61;101571.06;6114388;23;20282;-75
2021/03/05 12:11:51;;;;;;;;;;;;;;;6.59;67.26;101576.25;6138675;23;20511;-75
2021/03/05 12:14:17;;;;;;;;;;;;;;;6.56;67.34;101577.56;6114997;23;19931;-75
2021/03/05 12:16:42;;;;;;;;;;;;;;;6.60;66.06;101583.44;6139189;23;19908;-75
2021/03/05 12:19:10;;;;;;;;;;;;;;;6.56;66.84;101573.97;6115450;23;19908;-75
2021/03/05 12:21:41;;;;;;;;;;;;;;;6.50;67.08;101573.00;6139015;23;19931;-75
2021/03/05 12:24:12;;;;;;;;;;;;;;;6.48;66.99;101569.66;6164747;23;19909;-73
2021/03/05 12:26:38;;;;;;;;;;;;;;;6.52;66.65;101575.50;6189661;23;19912;-73
2021/03/05 12:29:03;;;;;;;;;;;;;;;6.41;67.08;101572.53;6163606;23;20315;-74
2021/03/05 12:31:28;;;;;;;;;;;;;;;6.38;67.41;101574.91;6163610;23;20345;-73
2021/03/05 12:33:56;;;;;;;;;;;;;;;6.41;67.81;101563.44;6189738;23;19916;-73
2021/03/05 12:36:21;;;;;;;;;;;;;;;6.39;67.48;101565.59;6189811;23;19956;-73
2021/03/05 12:38:47;;;;;;;;;;;;;;;6.44;68.29;101565.69;6189692;23;20250;-73
2021/03/05 12:41:12;;;;;;;;;;;;;;;6.44;65.68;101558.25;6163304;23;19912;-73
2021/03/05 12:43:37;;;;;;;;;;;;;;;6.51;65.40;101568.31;6189745;23;19916;-74
2021/03/05 12:46:03;;;;;;;;;;;;;;;6.51;65.47;101560.88;6189768;23;19987;-73